Time;durP1;ratioP1;P1;durP2;ratioP2;P2;SDS_P1;SDS_P2;PMS_P1;PMS_P2;Temp;Humidity;BMP_temperature;BMP_pressure;BME280_temperature;BME280_humidity;BME280_pressure;Samples;Min_cycle;Max_cycle;Signal;HPM_P1;HPM_P2
2023/01/20 00:02:43;;;;;;;3.78;2.42;;;;;;;1.96;88.49;100752.03;10443919;28;20041;-86
2023/01/20 00:07:45;;;;;;;3.75;2.10;;;;;;;1.83;87.84;100736.72;10445949;28;20037;-84
2023/01/20 00:12:47;;;;;;;5.47;2.45;;;;;;;1.77;88.32;100749.25;10417384;28;20037;-83
2023/01/20 00:17:49;;;;;;;2.40;1.92;;;;;;;1.84;88.65;100751.06;10456764;28;20053;-81
2023/01/20 00:22:51;;;;;;;2.90;2.08;;;;;;;2.00;88.66;100751.34;10437677;28;20081;-82
2023/01/20 00:27:54;;;;;;;2.83;2.17;;;;;;;2.19;88.42;100752.22;10447046;28;20046;-82
2023/01/20 00:32:56;;;;;;;6.82;2.33;;;;;;;2.10;87.45;100735.44;10418422;28;20037;-83
2023/01/20 00:37:58;;;;;;;5.70;2.25;;;;;;;2.02;87.47;100740.28;10413267;28;20260;-82
2023/01/20 00:43:00;;;;;;;3.70;2.20;;;;;;;2.05;87.63;100743.38;10444190;28;20061;-83
2023/01/20 00:48:02;;;;;;;4.22;1.90;;;;;;;2.07;87.74;100730.44;10418443;28;20045;-82
2023/01/20 00:53:05;;;;;;;2.45;1.90;;;;;;;2.13;87.51;100733.34;10411664;28;20053;-81
2023/01/20 00:58:07;;;;;;;4.50;2.22;;;;;;;2.01;86.67;100739.47;10430567;28;20049;-81
2023/01/20 01:03:09;;;;;;;4.15;2.03;;;;;;;2.21;86.76;100757.41;10431961;28;20049;-83
2023/01/20 01:08:12;;;;;;;3.85;2.13;;;;;;;2.31;86.19;100763.97;10449007;28;20057;-82
2023/01/20 01:13:14;;;;;;;5.75;2.30;;;;;;;2.34;86.40;100765.41;10423114;28;20488;-81
2023/01/20 01:18:16;;;;;;;2.15;1.88;;;;;;;2.18;85.91;100760.56;10427900;28;20050;-81
2023/01/20 01:23:18;;;;;;;2.67;2.10;;;;;;;2.13;85.80;100760.41;10444385;28;20053;-81
2023/01/20 01:28:21;;;;;;;2.83;1.80;;;;;;;1.92;86.03;100765.16;10448162;28;20048;-82
2023/01/20 01:33:23;;;;;;;2.67;1.95;;;;;;;2.05;86.27;100739.84;10434127;28;20041;-82
2023/01/20 01:38:26;;;;;;;3.45;1.90;;;;;;;2.17;86.54;100739.94;10442562;28;20049;-83
2023/01/20 01:43:29;;;;;;;3.92;1.90;;;;;;;2.13;86.68;100726.03;10405486;28;20046;-84
2023/01/20 01:48:39;;;;;;;5.80;2.45;;;;;;;2.08;86.84;100720.44;10415813;28;20045;-83
2023/01/20 01:53:46;;;;;;;4.15;3.10;;;;;;;2.12;86.26;100727.09;10417570;28;20050;-82
2023/01/20 01:58:49;;;;;;;4.03;2.42;;;;;;;1.99;86.38;100741.56;10431126;28;20053;-81
2023/01/20 02:04:06;;;;;;;4.53;2.30;;;;;;;1.93;86.50;100758.72;10419659;28;20045;-82
2023/01/20 02:09:08;;;;;;;3.17;2.05;;;;;;;1.91;87.00;100770.78;10437196;28;20065;-81
2023/01/20 02:14:11;;;;;;;3.85;2.58;;;;;;;1.96;86.88;100782.63;10445858;28;20049;-82
2023/01/20 02:19:23;;;;;;;5.32;2.55;;;;;;;1.99;86.40;100800.28;10443828;28;20121;-83
2023/01/20 02:24:28;;;;;;;3.78;2.22;;;;;;;1.77;86.10;100813.38;10416856;28;20044;-84
2023/01/20 02:29:45;;;;;;;4.05;1.98;;;;;;;1.72;86.53;100796.94;10431546;28;20217;-83
2023/01/20 02:35:07;;;;;;;4.75;1.92;;;;;;;1.73;86.16;100809.41;10409287;28;20058;-84
2023/01/20 02:40:11;;;;;;;4.72;2.38;;;;;;;1.64;86.61;100824.28;10408299;28;20053;-82
2023/01/20 02:45:26;;;;;;;5.40;3.15;;;;;;;1.40;87.40;100826.72;10434155;28;20044;-83
2023/01/20 02:50:34;;;;;;;6.57;3.97;;;;;;;1.13;87.80;100841.38;10423703;28;20054;-83
2023/01/20 02:55:41;;;;;;;7.88;4.78;;;;;;;0.95;88.78;100835.84;10428154;28;20056;-83
2023/01/20 03:00:54;;;;;;;8.18;4.53;;;;;;;0.79;89.23;100832.56;10427055;28;20045;-84
2023/01/20 03:05:59;;;;;;;8.25;4.25;;;;;;;0.84;90.45;100842.72;10404932;28;20056;-83
2023/01/20 03:11:06;;;;;;;7.53;4.15;;;;;;;0.76;90.88;100848.38;10440550;28;20041;-84
2023/01/20 03:16:11;;;;;;;6.75;4.35;;;;;;;0.76;90.80;100840.25;10418245;28;20535;-84
2023/01/20 03:21:13;;;;;;;10.57;4.90;;;;;;;0.69;91.39;100828.63;10403803;28;20042;-83
2023/01/20 03:26:17;;;;;;;10.40;5.18;;;;;;;0.59;91.70;100834.47;10369654;28;20046;-83
2023/01/20 03:31:33;;;;;;;9.30;4.30;;;;;;;0.51;91.80;100837.38;10429535;28;20057;-84
2023/01/20 03:36:36;;;;;;;6.28;4.18;;;;;;;0.59;92.50;100823.69;10440887;28;20054;-84
2023/01/20 03:42:06;;;;;;;8.15;5.07;;;;;;;0.57;92.29;100823.06;10438714;28;20050;-85
2023/01/20 03:47:30;;;;;;;7.32;4.78;;;;;;;0.55;92.72;100831.38;10441171;28;20045;-85
2023/01/20 03:52:51;;;;;;;7.70;4.13;;;;;;;0.39;92.22;100823.72;10436492;28;20052;-80
2023/01/20 03:57:58;;;;;;;6.00;3.55;;;;;;;0.40;92.37;100827.25;10434382;28;20053;-82
2023/01/20 04:03:05;;;;;;;8.70;3.95;;;;;;;0.45;92.92;100832.84;10438239;28;20048;-80
2023/01/20 04:08:09;;;;;;;9.43;4.10;;;;;;;0.66;93.19;100829.06;10429451;28;20037;-80
2023/01/20 04:13:11;;;;;;;5.82;3.80;;;;;;;0.64;93.14;100814.94;10449227;28;20065;-79
2023/01/20 04:18:19;;;;;;;13.68;4.57;;;;;;;0.75;92.84;100815.13;10419580;28;20416;-80
2023/01/20 04:23:40;;;;;;;7.47;4.20;;;;;;;0.76;92.63;100813.25;10426597;28;20073;-80
2023/01/20 04:28:42;;;;;;;7.65;4.07;;;;;;;0.80;92.41;100811.78;10426480;28;20400;-80
2023/01/20 04:33:45;;;;;;;6.03;3.38;;;;;;;0.93;92.88;100813.63;10438428;28;20052;-80
2023/01/20 04:38:47;;;;;;;8.50;4.55;;;;;;;0.90;92.57;100821.09;10429929;28;20045;-79
2023/01/20 04:43:50;;;;;;;7.38;4.10;;;;;;;1.03;92.35;100831.00;10433517;28;20045;-77
2023/01/20 04:48:52;;;;;;;9.98;4.22;;;;;;;1.23;91.58;100841.75;10436691;28;20049;-80
2023/01/20 04:53:56;;;;;;;5.40;3.83;;;;;;;1.28;91.22;100846.53;10445027;28;20543;-79
2023/01/20 04:58:59;;;;;;;7.00;3.88;;;;;;;1.26;90.46;100846.72;10444364;28;20570;-79
2023/01/20 05:04:01;;;;;;;7.93;4.00;;;;;;;1.20;90.37;100844.88;10433764;28;20038;-80
2023/01/20 05:09:04;;;;;;;9.82;4.22;;;;;;;1.16;90.51;100830.97;10426466;28;20070;-80
2023/01/20 05:14:06;;;;;;;9.13;4.28;;;;;;;1.12;90.59;100818.09;10424483;28;20072;-80
2023/01/20 05:19:10;;;;;;;10.00;4.28;;;;;;;1.11;90.71;100814.56;10427402;28;20041;-79
2023/01/20 05:24:12;;;;;;;8.40;4.18;;;;;;;1.15;90.68;100817.66;10443895;28;20420;-80
2023/01/20 05:29:15;;;;;;;10.30;4.32;;;;;;;1.10;91.21;100825.59;10446300;28;20053;-80
2023/01/20 05:34:17;;;;;;;10.07;4.80;;;;;;;1.11;91.32;100832.66;10424548;28;20061;-79
2023/01/20 05:39:20;;;;;;;10.32;4.65;;;;;;;1.13;91.60;100833.28;10435524;28;20047;-79
2023/01/20 05:44:22;;;;;;;8.90;4.97;;;;;;;1.14;91.65;100833.06;10428454;28;20428;-80
2023/01/20 05:49:24;;;;;;;8.05;4.68;;;;;;;1.03;91.33;100844.53;10433587;28;20530;-79
2023/01/20 05:54:26;;;;;;;8.65;4.78;;;;;;;0.88;91.92;100844.81;10414937;28;20054;-79
2023/01/20 05:59:28;;;;;;;10.57;4.97;;;;;;;0.90;92.63;100848.13;10405592;28;20453;-80
2023/01/20 06:04:30;;;;;;;14.20;5.07;;;;;;;0.89;92.63;100848.34;10413021;28;20065;-79
2023/01/20 06:09:32;;;;;;;12.57;5.45;;;;;;;0.88;92.79;100852.91;10425769;28;20054;-80
2023/01/20 06:14:35;;;;;;;10.73;5.43;;;;;;;1.01;92.80;100851.19;10402946;28;20052;-80
2023/01/20 06:19:37;;;;;;;10.93;5.15;;;;;;;1.04;92.86;100853.47;10436033;28;20041;-79
2023/01/20 06:24:39;;;;;;;10.32;4.03;;;;;;;0.93;92.97;100854.97;10418566;28;20044;-80
2023/01/20 06:29:41;;;;;;;9.32;4.80;;;;;;;1.02;92.82;100850.13;10403291;28;20133;-80
2023/01/20 06:34:44;;;;;;;10.10;4.50;;;;;;;1.03;92.35;100835.59;10440604;28;20057;-79
2023/01/20 06:39:46;;;;;;;7.45;4.70;;;;;;;1.14;93.03;100843.88;10395975;28;20480;-79
2023/01/20 06:44:48;;;;;;;10.38;5.28;;;;;;;1.16;92.57;100843.66;10426161;28;20040;-79
2023/01/20 06:49:50;;;;;;;7.10;4.18;;;;;;;1.25;92.33;100850.47;10411093;28;20528;-79
2023/01/20 06:55:08;;;;;;;6.57;3.75;;;;;;;1.13;91.74;100849.50;10431059;28;20079;-78
2023/01/20 07:00:10;;;;;;;8.40;5.35;;;;;;;0.92;90.96;100866.81;10432940;28;20058;-78
2023/01/20 07:05:13;;;;;;;9.60;4.30;;;;;;;0.64;91.09;100864.38;10438974;28;20052;-80
2023/01/20 07:10:15;;;;;;;8.32;3.70;;;;;;;0.61;91.78;100854.00;10446506;28;20322;-81
2023/01/20 07:15:17;;;;;;;11.05;5.32;;;;;;;0.67;91.76;100866.66;10419796;28;20049;-79
2023/01/20 07:20:19;;;;;;;9.88;4.63;;;;;;;0.40;92.18;100867.75;10451287;28;20665;-85
2023/01/20 07:25:22;;;;;;;7.75;3.20;;;;;;;0.32;91.90;100860.66;10445429;28;20064;-80
2023/01/20 07:30:26;;;;;;;5.00;2.97;;;;;;;0.22;92.39;100855.72;10436853;28;20419;-80
2023/01/20 07:35:29;;;;;;;2.53;2.03;;;;;;;0.13;92.43;100862.34;10414713;28;20389;-84
2023/01/20 07:40:31;;;;;;;7.15;3.30;;;;;;;0.10;93.25;100875.41;10444040;28;20049;-84
2023/01/20 07:45:33;;;;;;;5.50;2.33;;;;;;;0.09;93.27;100873.75;10436573;28;20053;-83
2023/01/20 07:50:36;;;;;;;6.75;2.83;;;;;;;0.14;93.76;100874.78;10437753;28;20041;-83
2023/01/20 07:55:38;;;;;;;11.70;4.78;;;;;;;0.11;93.77;100875.22;10439811;28;20033;-83
2023/01/20 08:00:40;;;;;;;4.70;2.42;;;;;;;0.09;93.87;100879.97;10413061;28;20049;-83
2023/01/20 08:05:43;;;;;;;8.15;4.13;;;;;;;0.10;93.47;100895.13;10443944;28;20411;-84
2023/01/20 08:10:52;;;;;;;3.38;2.33;;;;;;;0.09;94.14;100904.25;10426307;28;20056;-83
2023/01/20 08:15:55;;;;;;;2.45;1.30;;;;;;;0.09;94.24;100915.06;10401532;28;20054;-84
2023/01/20 08:20:57;;;;;;;7.00;3.97;;;;;;;0.08;93.36;100924.19;10422187;28;20519;-82
2023/01/20 08:26:01;;;;;;;5.18;2.22;;;;;;;0.02;93.86;100916.94;10443089;28;20507;-83
2023/01/20 08:31:10;;;;;;;1.80;1.70;;;;;;;0.07;94.56;100919.84;10449674;28;20060;-82
2023/01/20 08:36:15;;;;;;;4.18;2.42;;;;;;;0.20;94.41;100922.56;10449847;28;20148;-82
2023/01/20 08:41:22;;;;;;;4.80;2.58;;;;;;;0.22;94.76;100925.88;10415404;28;20062;-83
2023/01/20 08:46:24;;;;;;;3.67;2.13;;;;;;;0.37;94.99;100914.06;10408410;28;20521;-83
2023/01/20 08:51:30;;;;;;;4.10;2.30;;;;;;;0.44;94.56;100940.00;10413675;28;20041;-83
2023/01/20 08:56:34;;;;;;;3.40;2.40;;;;;;;0.29;94.22;100928.56;10448194;28;20610;-83
2023/01/20 09:01:36;;;;;;;4.65;2.60;;;;;;;0.39;94.49;100917.38;10429099;28;20077;-84
2023/01/20 09:06:41;;;;;;;6.47;2.58;;;;;;;0.37;94.52;100916.75;10408563;28;20048;-83
2023/01/20 09:11:49;;;;;;;4.93;2.65;;;;;;;0.52;94.40;100917.34;10441122;28;20049;-83
2023/01/20 09:16:51;;;;;;;2.33;1.60;;;;;;;0.35;94.45;100908.00;10427382;28;20041;-83
2023/01/20 09:21:54;;;;;;;7.10;2.30;;;;;;;0.45;95.05;100895.75;10408082;28;20125;-84
2023/01/20 09:26:57;;;;;;;2.40;1.83;;;;;;;0.55;94.28;100898.06;10442118;28;20049;-84
2023/01/20 09:31:59;;;;;;;5.85;3.53;;;;;;;0.53;94.35;100902.84;10442484;28;20038;-85
2023/01/20 09:47:45;;;;;;;1.05;0.93;;;;;;;0.61;93.54;100945.81;10421472;28;20041;-84
2023/01/20 09:53:01;;;;;;;3.17;1.85;;;;;;;0.49;93.05;100933.97;10427515;28;20037;-83
2023/01/20 09:58:19;;;;;;;0.95;0.93;;;;;;;0.45;93.16;100941.66;10409145;28;20042;-83
2023/01/20 10:03:29;;;;;;;2.08;1.60;;;;;;;0.36;93.43;100942.09;10405752;28;20050;-83
2023/01/20 10:08:35;;;;;;;3.35;2.53;;;;;;;0.29;93.89;100937.50;10427193;28;20072;-83
2023/01/20 10:14:08;;;;;;;2.13;1.65;;;;;;;0.32;93.83;100935.41;10430808;28;20140;-84
2023/01/20 10:19:25;;;;;;;3.30;2.03;;;;;;;0.45;93.98;100941.66;10447276;28;20052;-84
2023/01/20 10:24:31;;;;;;;3.38;2.17;;;;;;;0.50;93.68;100957.22;10439271;28;20561;-83
2023/01/20 10:29:35;;;;;;;1.45;1.30;;;;;;;0.44;93.83;100952.66;10407256;28;20046;-81
2023/01/20 10:34:46;;;;;;;3.70;1.98;;;;;;;0.44;93.67;100950.78;10408296;28;20205;-82
2023/01/20 10:40:25;;;;;;;3.83;2.40;;;;;;;0.42;93.85;100970.94;10401958;28;20050;-84
2023/01/20 10:45:33;;;;;;;2.08;1.45;;;;;;;0.37;93.69;100970.75;10431109;28;20052;-83
2023/01/20 10:50:53;;;;;;;9.85;3.67;;;;;;;0.36;94.03;100971.78;10444059;28;20060;-80
2023/01/20 10:56:01;;;;;;;5.18;3.20;;;;;;;0.37;94.09;100971.56;10442468;28;20503;-81
2023/01/20 11:01:04;;;;;;;;;;;;;;;0.34;93.84;100965.72;10445201;28;20053;-79
2023/01/20 11:06:07;;;;;;;3.72;1.92;;;;;;;0.33;93.79;100972.16;10417644;28;19921;-80
2023/01/20 11:11:19;;;;;;;2.88;2.50;;;;;;;0.35;92.95;100983.59;10417197;28;20412;-77
2023/01/20 11:16:25;;;;;;;1.65;1.30;;;;;;;0.29;93.15;100988.78;10441243;28;20427;-79
2023/01/20 11:21:30;;;;;;;5.38;2.83;;;;;;;0.40;93.08;101005.41;10409271;28;20516;-82
2023/01/20 11:26:35;;;;;;;4.93;2.70;;;;;;;0.40;93.14;101022.44;10444824;28;20046;-77
2023/01/20 11:31:47;;;;;;;5.65;2.60;;;;;;;0.44;92.29;101010.19;10413112;28;20559;-76
2023/01/20 11:37:20;;;;;;;2.42;1.08;;;;;;;0.39;92.54;101019.94;10405098;28;20046;-78
2023/01/20 11:42:28;;;;;;;3.17;1.98;;;;;;;0.30;92.97;101022.81;10423232;28;20064;-77
2023/01/20 11:47:32;;;;;;;2.47;1.50;;;;;;;0.39;93.43;101019.94;10420408;28;20038;-80
2023/01/20 11:52:37;;;;;;;2.58;1.88;;;;;;;0.33;93.04;101007.25;10416486;28;20045;-75
2023/01/20 11:57:46;;;;;;;2.50;1.73;;;;;;;0.29;93.41;101001.44;10421330;28;20327;-74
2023/01/20 12:03:09;;;;;;;3.25;1.80;;;;;;;0.25;93.38;100997.50;10447886;28;20042;-74
2023/01/20 12:08:23;;;;;;;2.22;1.40;;;;;;;0.25;93.55;100994.78;10423171;28;20050;-74
2023/01/20 12:13:27;;;;;;;2.55;1.27;;;;;;;0.21;93.49;100994.38;10430897;28;20057;-74
2023/01/20 12:18:51;;;;;;;3.55;2.22;;;;;;;0.15;93.75;101010.53;10444233;28;20419;-74
2023/01/20 12:24:02;;;;;;;2.22;1.40;;;;;;;0.10;93.37;101019.25;10412310;28;20049;-74
2023/01/20 12:29:30;;;;;;;3.15;2.10;;;;;;;0.17;93.67;101022.78;10438327;28;20557;-75
2023/01/20 12:34:37;;;;;;;3.87;2.10;;;;;;;0.18;93.22;101029.88;10447524;28;20157;-74
2023/01/20 12:39:45;;;;;;;1.50;1.27;;;;;;;0.35;93.43;101024.06;10443098;28;20060;-81
2023/01/20 12:44:58;;;;;;;1.00;0.90;;;;;;;0.41;92.68;101036.78;10427498;28;20423;-82
2023/01/20 12:50:17;;;;;;;2.10;1.40;;;;;;;0.36;91.93;101034.69;10416942;28;20559;-82
2023/01/20 12:55:24;;;;;;;0.93;0.85;;;;;;;0.44;92.44;101041.75;10407951;28;20050;-81
2023/01/20 13:00:42;;;;;;;2.08;1.45;;;;;;;0.36;91.85;101045.50;10406362;28;20052;-81
2023/01/20 13:06:07;;;;;;;3.72;2.10;;;;;;;0.44;92.42;101053.38;10436006;28;20512;-81
2023/01/20 13:11:28;;;;;;;2.08;1.85;;;;;;;0.47;92.12;101068.34;10436921;28;20035;-80
2023/01/20 13:16:43;;;;;;;2.72;1.58;;;;;;;0.38;92.27;101074.97;10446349;28;20037;-81
2023/01/20 13:21:47;;;;;;;4.65;2.08;;;;;;;0.44;92.18;101069.59;10447551;28;20056;-80
2023/01/20 13:26:50;;;;;;;2.38;2.17;;;;;;;0.38;92.20;101069.56;10447165;28;20052;-80
2023/01/20 13:31:52;;;;;;;5.47;2.22;;;;;;;0.32;92.23;101081.16;10446806;28;20037;-81
2023/01/20 13:37:37;;;;;;;4.60;2.30;;;;;;;0.29;91.58;101091.34;10447958;28;20048;-81
2023/01/20 13:42:39;;;;;;;1.98;1.35;;;;;;;0.28;91.96;101091.53;10447303;28;20519;-80
2023/01/20 13:47:51;;;;;;;0.98;0.95;;;;;;;0.25;91.43;101098.19;10448925;28;20045;-81
2023/01/20 13:52:56;;;;;;;6.45;2.85;;;;;;;0.15;91.70;101097.72;10450949;28;20059;-82
2023/01/20 13:57:58;;;;;;;1.42;1.15;;;;;;;0.13;92.71;101094.38;10457577;28;20045;-80
2023/01/20 14:03:22;;;;;;;0.32;0.30;;;;;;;0.14;92.90;101092.53;10446610;28;20045;-81
2023/01/20 14:08:28;;;;;;;2.97;1.58;;;;;;;0.06;93.54;101098.94;10445188;28;20048;-80
2023/01/20 14:13:30;;;;;;;1.15;0.90;;;;;;;0.09;93.91;101082.34;10447051;28;20052;-80
2023/01/20 14:18:32;;;;;;;1.95;1.60;;;;;;;0.03;94.28;101083.16;10446864;28;20058;-80
2023/01/20 14:23:44;;;;;;;3.42;1.65;;;;;;;-0.08;94.30;101071.06;10446617;28;20045;-82
2023/01/20 14:28:58;;;;;;;1.15;1.05;;;;;;;-0.11;94.80;101100.31;10445709;28;20038;-81
2023/01/20 14:34:16;;;;;;;3.55;1.77;;;;;;;-0.12;94.92;101115.66;10446294;28;20052;-81
2023/01/20 14:39:21;;;;;;;2.90;1.75;;;;;;;-0.06;95.02;101124.81;10444361;28;20450;-81
2023/01/20 14:44:28;;;;;;;2.42;1.60;;;;;;;0.03;95.22;101128.19;10446808;28;20516;-81
2023/01/20 14:49:38;;;;;;;3.40;1.77;;;;;;;0.03;94.65;101147.06;10434535;28;20132;-82
2023/01/20 14:54:45;;;;;;;3.97;2.40;;;;;;;-0.03;94.78;101148.69;10436299;28;20043;-81
2023/01/20 15:00:12;;;;;;;4.75;2.63;;;;;;;-0.07;95.83;101169.00;10436958;28;20656;-85
2023/01/20 15:05:19;;;;;;;1.97;1.33;;;;;;;-0.05;95.95;101169.63;10400429;28;20052;-77
2023/01/20 15:10:22;;;;;;;5.13;3.40;;;;;;;0.05;95.84;101178.22;10414630;28;20048;-73
2023/01/20 15:15:28;;;;;;;3.65;2.30;;;;;;;-0.03;96.46;101194.53;10431795;28;20048;-77
2023/01/20 15:20:31;;;;;;;7.13;2.05;;;;;;;-0.05;96.51;101192.06;10440564;28;20044;-89
2023/01/20 15:25:35;;;;;;;1.80;1.48;;;;;;;-0.08;95.95;101199.72;10406209;28;20049;-85
2023/01/20 15:30:37;;;;;;;3.03;1.48;;;;;;;-0.01;95.66;101206.81;10426653;28;20033;-81
2023/01/20 15:35:40;;;;;;;1.88;1.02;;;;;;;-0.08;95.03;101211.34;10418204;28;20061;-85
2023/01/20 15:40:42;;;;;;;3.58;2.28;;;;;;;-0.01;95.25;101206.81;10433638;28;20049;-79
2023/01/20 15:45:45;;;;;;;1.88;1.15;;;;;;;0.04;94.75;101224.28;10433131;28;20765;-79
2023/01/20 15:50:47;;;;;;;0.75;0.75;;;;;;;0.02;93.98;101231.75;10424520;28;20042;-77
2023/01/20 15:55:50;;;;;;;4.80;2.42;;;;;;;0.13;94.21;101240.09;10448526;28;20065;-79
2023/01/20 16:00:56;;;;;;;2.78;1.60;;;;;;;0.08;94.14;101264.16;10435875;28;20037;-81
2023/01/20 16:05:58;;;;;;;3.00;2.30;;;;;;;0.37;94.65;101271.22;10416323;28;20057;-78
2023/01/20 16:11:00;;;;;;;1.85;1.55;;;;;;;0.18;94.19;101302.44;10446847;28;20421;-85
2023/01/20 16:16:03;;;;;;;5.72;2.90;;;;;;;0.25;93.98;101313.25;10447481;28;20046;-78
2023/01/20 16:21:06;;;;;;;2.17;1.70;;;;;;;0.13;93.87;101337.25;10437751;28;20057;-76
2023/01/20 16:26:25;;;;;;;1.85;1.33;;;;;;;0.24;94.13;101339.41;10442503;28;19920;-86
2023/01/20 16:31:27;;;;;;;1.45;0.95;;;;;;;0.17;93.73;101356.56;10447523;28;20033;-85
2023/01/20 16:36:30;;;;;;;4.57;2.00;;;;;;;0.20;93.42;101373.25;10448684;28;20048;-89
2023/01/20 16:41:32;;;;;;;5.30;2.90;;;;;;;0.10;93.47;101393.47;10441159;28;20061;-96
2023/01/20 16:46:34;;;;;;;2.58;1.90;;;;;;;0.11;93.14;101382.50;10421662;28;20038;-87
2023/01/20 16:51:36;;;;;;;4.60;2.47;;;;;;;0.08;93.20;101384.75;10446518;28;20064;-82
2023/01/20 16:56:39;;;;;;;2.40;1.55;;;;;;;0.11;92.85;101387.88;10446627;28;20504;-81
2023/01/20 17:01:41;;;;;;;4.38;2.58;;;;;;;0.13;92.75;101399.31;10440791;28;20052;-81
2023/01/20 17:06:43;;;;;;;2.80;2.22;;;;;;;0.09;92.86;101405.31;10425001;28;20054;-76
2023/01/20 17:11:45;;;;;;;3.53;2.15;;;;;;;0.03;92.66;101401.53;10427785;28;20546;-80
2023/01/20 17:16:47;;;;;;;2.92;1.85;;;;;;;0.10;93.43;101413.19;10437531;28;20041;-79
2023/01/20 17:21:50;;;;;;;1.95;1.65;;;;;;;0.03;93.33;101423.13;10424489;28;20060;-78
2023/01/20 17:26:52;;;;;;;2.42;1.88;;;;;;;0.06;93.20;101441.59;10426475;28;20037;-77
2023/01/20 17:31:54;;;;;;;3.40;2.95;;;;;;;0.06;93.56;101447.00;10438988;28;20049;-78
2023/01/20 17:36:56;;;;;;;4.82;1.63;;;;;;;0.07;93.13;101445.13;10427675;28;20093;-78
2023/01/20 17:41:58;;;;;;;4.97;1.98;;;;;;;0.13;93.40;101469.47;10420227;28;20049;-78
2023/01/20 17:47:01;;;;;;;6.47;3.47;;;;;;;0.29;94.20;101477.31;10433932;28;20042;-80
2023/01/20 17:52:03;;;;;;;5.75;2.95;;;;;;;0.29;94.02;101474.63;10415108;28;20060;-79
2023/01/20 17:57:07;;;;;;;6.82;3.53;;;;;;;0.29;93.60;101482.72;10438395;28;20069;-95
2023/01/20 18:02:11;;;;;;;5.35;3.28;;;;;;;0.22;93.84;101498.03;10383257;28;20056;-94
2023/01/20 18:07:13;;;;;;;6.20;3.50;;;;;;;0.30;94.16;101513.25;10405921;28;20042;-92
2023/01/20 18:12:19;;;;;;;6.15;3.90;;;;;;;0.32;94.07;101519.28;10420932;28;20056;-90
2023/01/20 18:17:21;;;;;;;6.35;3.40;;;;;;;0.20;93.68;101521.69;10439781;28;20047;-91
2023/01/20 18:22:24;;;;;;;6.45;3.58;;;;;;;0.28;94.31;101528.81;10451491;28;20061;-95
2023/01/20 18:27:28;;;;;;;8.40;4.50;;;;;;;0.20;93.79;101543.28;10465950;28;20061;-94
2023/01/20 18:32:31;;;;;;;9.68;4.90;;;;;;;0.12;93.57;101546.06;10453645;28;20504;-94
2023/01/20 18:37:33;;;;;;;7.72;4.45;;;;;;;0.16;93.95;101541.97;10432192;28;20054;-93
2023/01/20 18:42:35;;;;;;;6.85;4.10;;;;;;;0.13;93.65;101553.13;10433212;28;20055;-88
2023/01/20 18:47:38;;;;;;;6.25;4.18;;;;;;;0.00;93.69;101563.81;10416964;28;20041;-82
2023/01/20 18:52:40;;;;;;;8.93;3.90;;;;;;;-0.04;93.96;101557.09;10435213;28;20048;-88
2023/01/20 18:57:42;;;;;;;6.80;3.08;;;;;;;-0.09;94.16;101576.53;10433888;28;20041;-86
2023/01/20 19:02:49;;;;;;;6.45;4.07;;;;;;;-0.05;94.34;101598.59;10419823;28;20053;-78
2023/01/20 19:07:51;;;;;;;6.45;3.60;;;;;;;0.07;94.73;101601.66;10415782;28;20042;-79
2023/01/20 19:12:53;;;;;;;9.40;4.80;;;;;;;0.09;93.97;101615.78;10421639;28;20040;-80
2023/01/20 19:18:01;;;;;;;7.65;4.95;;;;;;;0.08;94.01;101641.94;10398207;28;20039;-79
2023/01/20 19:23:03;;;;;;;8.70;5.33;;;;;;;0.09;94.16;101654.41;10436865;28;20420;-79
2023/01/20 19:28:07;;;;;;;9.90;4.55;;;;;;;0.03;93.71;101667.81;10421429;28;20037;-78
2023/01/20 19:33:11;;;;;;;7.22;4.18;;;;;;;-0.02;93.66;101690.78;10434407;28;20061;-77
2023/01/20 19:38:15;;;;;;;6.65;4.10;;;;;;;-0.04;93.94;101702.78;10433379;28;20331;-77
2023/01/20 19:43:18;;;;;;;6.90;4.40;;;;;;;-0.09;93.95;101710.59;10429344;28;20057;-76
2023/01/20 19:48:20;;;;;;;7.35;4.50;;;;;;;-0.29;93.82;101731.88;10398789;28;20068;-76
2023/01/20 19:53:22;;;;;;;5.85;3.83;;;;;;;-0.39;93.85;101742.91;10424666;28;20042;-78
2023/01/20 19:58:24;;;;;;;6.55;3.92;;;;;;;-0.42;94.18;101753.22;10423585;28;20508;-77
2023/01/20 20:03:26;;;;;;;6.47;3.97;;;;;;;0.16;94.50;101757.88;10407807;28;20148;-81
2023/01/20 20:08:37;;;;;;;4.85;3.63;;;;;;;0.54;92.08;101761.34;10429351;28;20048;-80
2023/01/20 20:13:40;;;;;;;5.30;3.90;;;;;;;0.58;90.38;101761.78;10421252;28;20058;-78
2023/01/20 20:18:42;;;;;;;5.28;3.35;;;;;;;0.51;88.88;101766.25;10433068;28;20060;-79
2023/01/20 20:23:49;;;;;;;4.90;3.50;;;;;;;0.62;88.13;101759.53;10419932;28;20048;-80
2023/01/20 20:28:52;;;;;;;4.85;3.88;;;;;;;0.48;87.92;101766.63;10394337;28;20065;-76
2023/01/20 20:33:58;;;;;;;9.88;3.60;;;;;;;0.37;87.94;101765.25;10411648;28;20045;-78
2023/01/20 20:39:01;;;;;;;6.97;3.75;;;;;;;-0.09;89.00;101767.25;10426209;28;20424;-77
2023/01/20 20:44:04;;;;;;;6.00;3.78;;;;;;;-0.67;89.80;101798.41;10432168;28;20054;-77
2023/01/20 20:49:06;;;;;;;7.72;4.13;;;;;;;-0.69;91.55;101827.41;10429808;28;20132;-79
2023/01/20 20:54:10;;;;;;;5.65;3.85;;;;;;;-0.80;92.19;101819.72;10442452;28;20037;-78
2023/01/20 20:59:13;;;;;;;5.60;3.60;;;;;;;-1.01;92.66;101829.25;10430488;28;20038;-79
2023/01/20 21:04:15;;;;;;;6.80;3.75;;;;;;;-0.93;93.23;101831.91;10432779;28;20045;-78
2023/01/20 21:09:18;;;;;;;6.22;4.20;;;;;;;-1.04;93.37;101826.06;10438623;28;20539;-77
2023/01/20 21:14:22;;;;;;;9.77;4.68;;;;;;;-1.19;93.89;101835.91;10438756;28;20038;-79
2023/01/20 21:19:24;;;;;;;11.98;5.57;;;;;;;-1.14;94.49;101845.16;10427022;28;20057;-75
2023/01/20 21:24:27;;;;;;;13.88;7.18;;;;;;;-1.25;94.36;101854.44;10429974;28;20132;-75
2023/01/20 21:29:30;;;;;;;11.90;6.60;;;;;;;-1.35;94.63;101852.97;10422721;28;20049;-78
2023/01/20 21:34:32;;;;;;;14.68;7.85;;;;;;;-1.27;94.52;101855.63;10424436;28;20049;-77
2023/01/20 21:39:34;;;;;;;13.18;7.53;;;;;;;-1.25;95.17;101875.97;10442312;28;20051;-77
2023/01/20 21:44:36;;;;;;;14.23;7.57;;;;;;;-1.27;95.16;101885.25;10442565;28;20424;-76
2023/01/20 21:55:00;;;;;;;19.13;8.90;;;;;;;-1.43;94.77;101904.97;10441933;28;20052;-78
2023/01/20 22:00:04;;;;;;;13.43;7.30;;;;;;;-1.49;94.87;101916.44;10418792;28;20044;-77
2023/01/20 22:05:14;;;;;;;14.70;7.65;;;;;;;-1.40;94.76;101923.47;10441236;28;20048;-76
2023/01/20 22:10:16;;;;;;;15.02;7.22;;;;;;;-1.37;94.83;101954.63;10425463;28;20052;-75
2023/01/20 22:15:18;;;;;;;13.70;6.78;;;;;;;-1.29;94.87;101965.38;10423784;28;20037;-79
2023/01/20 22:20:20;;;;;;;11.98;6.20;;;;;;;-1.12;94.41;101976.94;10434900;28;20037;-78
2023/01/20 22:25:22;;;;;;;9.13;5.03;;;;;;;-1.20;93.96;102003.91;10426518;28;20423;-76
2023/01/20 22:30:24;;;;;;;12.18;5.18;;;;;;;-1.02;93.61;102016.16;10433831;28;20045;-77
2023/01/20 22:35:27;;;;;;;6.75;4.05;;;;;;;-1.02;93.49;102005.38;10438866;28;20500;-76
2023/01/20 22:40:29;;;;;;;7.00;3.78;;;;;;;-1.23;92.47;102027.44;10421718;28;20057;-78
2023/01/20 22:45:31;;;;;;;8.95;3.40;;;;;;;-1.17;92.65;102020.56;10430912;28;20052;-75
2023/01/20 22:50:33;;;;;;;6.05;3.45;;;;;;;-1.02;92.60;102012.63;10439467;28;20050;-77
2023/01/20 22:55:36;;;;;;;6.55;3.53;;;;;;;-1.15;91.91;102026.63;10444319;28;20516;-77
2023/01/20 23:00:38;;;;;;;10.35;4.63;;;;;;;-1.07;92.35;102040.06;10438557;28;20052;-75
2023/01/20 23:05:49;;;;;;;8.27;3.90;;;;;;;-1.22;91.23;102031.81;10416260;28;20527;-81
2023/01/20 23:11:00;;;;;;;5.47;3.20;;;;;;;-1.38;91.33;102052.56;10425155;28;20041;-82
2023/01/20 23:16:03;;;;;;;8.80;3.30;;;;;;;-1.45;91.52;102056.91;10436175;28;20516;-82
2023/01/20 23:21:05;;;;;;;5.72;3.42;;;;;;;-1.77;91.79;102079.22;10437690;28;20041;-80
2023/01/20 23:26:13;;;;;;;7.05;3.75;;;;;;;-1.91;91.95;102094.16;10430487;28;20045;-77
2023/01/20 23:31:16;;;;;;;4.88;3.30;;;;;;;-1.59;92.60;102093.41;10419397;28;20132;-86
2023/01/20 23:36:21;;;;;;;9.63;4.50;;;;;;;-1.68;92.64;102108.69;10423301;28;20152;-83
2023/01/20 23:41:24;;;;;;;13.10;6.20;;;;;;;-1.61;92.58;102115.09;10432429;28;20052;-83
2023/01/20 23:46:26;;;;;;;12.45;6.07;;;;;;;-1.88;92.22;102108.16;10416259;28;20061;-83
2023/01/20 23:51:28;;;;;;;15.60;6.50;;;;;;;-2.10;92.31;102129.41;10431194;28;20037;-82